Time;durP1;ratioP1;P1;durP2;ratioP2;P2;SDS_P1;SDS_P2;PMS_P1;PMS_P2;Temp;Humidity;BMP_temperature;BMP_pressure;BME280_temperature;BME280_humidity;BME280_pressure;Samples;Min_cycle;Max_cycle;Signal;HPM_P1;HPM_P2
2023/05/26 00:01:08;;;;;;;14.80;13.30;;;14.80;99.90;;;;;;5043317;28;20205;-52
2023/05/26 00:03:35;;;;;;;13.33;12.07;;;14.80;99.90;;;;;;5050278;28;20259;-52
2023/05/26 00:06:03;;;;;;;14.23;12.90;;;14.80;99.90;;;;;;5048174;28;20228;-52
2023/05/26 00:08:31;;;;;;;12.90;11.70;;;14.80;99.90;;;;;;5049772;28;20240;-52
2023/05/26 00:10:59;;;;;;;17.37;12.57;;;14.80;99.90;;;;;;5048252;28;20678;-51
2023/05/26 00:13:25;;;;;;;12.50;11.40;;;14.80;99.90;;;;;;5049508;28;20197;-52
2023/05/26 00:15:53;;;;;;;16.50;14.73;;;14.80;99.90;;;;;;5049887;28;20225;-52
2023/05/26 00:18:20;;;;;;;22.50;17.83;;;14.90;99.90;;;;;;5046822;28;20198;-52
2023/05/26 00:20:47;;;;;;;24.20;18.13;;;14.90;99.90;;;;;;5050238;28;20212;-52
2023/05/26 00:23:14;;;;;;;20.20;17.93;;;14.90;99.90;;;;;;5049314;28;20206;-52
2023/05/26 00:25:42;;;;;;;22.83;17.40;;;14.80;99.90;;;;;;5050855;28;20229;-52
2023/05/26 00:28:09;;;;;;;17.77;15.23;;;14.80;99.90;;;;;;5049693;28;20249;-52
2023/05/26 00:30:36;;;;;;;17.37;15.57;;;14.70;99.90;;;;;;5043153;28;20725;-52
2023/05/26 00:33:03;;;;;;;14.33;13.00;;;14.60;99.90;;;;;;5045221;28;20209;-52
2023/05/26 00:35:30;;;;;;;14.70;12.90;;;14.60;99.90;;;;;;5050695;28;20244;-52
2023/05/26 00:37:57;;;;;;;13.43;12.13;;;14.50;99.90;;;;;;5048711;28;20339;-51
2023/05/26 00:40:24;;;;;;;18.13;16.07;;;14.50;99.90;;;;;;5051245;28;20622;-52
2023/05/26 00:42:52;;;;;;;24.20;19.77;;;14.60;99.90;;;;;;5052117;28;20205;-52
2023/05/26 00:45:19;;;;;;;17.20;14.87;;;14.60;99.90;;;;;;5052266;28;20245;-51
2023/05/26 00:47:46;;;;;;;17.20;15.27;;;14.60;99.90;;;;;;5050688;28;20202;-51
2023/05/26 00:50:13;;;;;;;19.53;16.33;;;14.50;99.90;;;;;;5048766;28;20237;-52
2023/05/26 00:52:41;;;;;;;16.03;14.33;;;14.50;99.90;;;;;;5049975;28;20232;-52
2023/05/26 00:55:10;;;;;;;17.93;13.83;;;14.40;99.90;;;;;;5049715;28;20253;-52
2023/05/26 00:57:37;;;;;;;15.90;13.70;;;14.30;99.90;;;;;;5048621;28;20243;-52
2023/05/26 01:00:09;;;;;;;13.87;12.60;;;14.30;99.90;;;;;;5053316;28;20234;-52
2023/05/26 01:02:37;;;;;;;14.97;13.33;;;14.20;99.90;;;;;;5051617;28;20209;-52
2023/05/26 01:05:06;;;;;;;15.87;14.27;;;14.20;99.90;;;;;;5053977;28;20216;-52
2023/05/26 01:07:33;;;;;;;26.17;19.30;;;14.20;99.90;;;;;;5049852;28;20213;-52
2023/05/26 01:10:01;;;;;;;26.97;19.27;;;14.30;99.90;;;;;;5053914;28;20245;-51
2023/05/26 01:12:34;;;;;;;24.33;17.97;;;14.30;99.90;;;;;;5051742;28;20263;-52
2023/05/26 01:15:05;;;;;;;22.97;15.60;;;14.20;99.90;;;;;;5052861;28;20221;-52
2023/05/26 01:17:40;;;;;;;18.20;14.87;;;14.20;99.90;;;;;;5052867;28;20229;-52
2023/05/26 01:20:18;;;;;;;18.63;14.93;;;14.10;99.90;;;;;;5053236;28;20193;-52
2023/05/26 01:23:19;;;;;;;16.57;14.80;;;14.10;99.90;;;;;;5051393;28;20613;-52
2023/05/26 01:26:08;;;;;;;17.30;15.50;;;14.10;99.90;;;;;;5050542;28;20307;-51
2023/05/26 01:28:41;;;;;;;15.97;14.47;;;14.10;99.90;;;;;;5039630;28;20303;-52
2023/05/26 01:31:09;;;;;;;17.47;15.73;;;14.00;99.90;;;;;;5053083;28;20256;-52
2023/05/26 01:33:36;;;;;;;15.30;13.67;;;14.00;99.90;;;;;;5052893;28;20205;-52
2023/05/26 01:36:03;;;;;;;13.10;11.90;;;13.90;99.90;;;;;;5053371;28;20221;-52
2023/05/26 01:38:30;;;;;;;16.93;14.13;;;13.90;99.90;;;;;;5048366;28;20248;-52
2023/05/26 01:41:03;;;;;;;14.60;13.20;;;13.90;99.90;;;;;;5051373;28;20202;-52
2023/05/26 01:43:39;;;;;;;14.43;13.10;;;13.90;99.90;;;;;;5051714;28;20193;-51
2023/05/26 01:46:11;;;;;;;14.77;13.27;;;13.90;99.90;;;;;;5051426;28;20221;-52
2023/05/26 01:48:41;;;;;;;14.67;13.13;;;13.90;99.90;;;;;;5047737;28;20584;-51
2023/05/26 01:51:08;;;;;;;14.73;13.30;;;13.90;99.90;;;;;;5048809;28;20737;-51
2023/05/26 01:53:38;;;;;;;15.87;14.23;;;13.90;99.90;;;;;;5050929;28;20251;-51
2023/05/26 01:56:07;;;;;;;14.40;13.00;;;13.90;99.90;;;;;;5049692;28;20279;-51
2023/05/26 01:58:37;;;;;;;16.07;14.37;;;13.90;99.90;;;;;;5049714;28;20194;-51
2023/05/26 02:01:06;;;;;;;14.70;13.07;;;13.80;99.90;;;;;;5049361;28;20686;-52
2023/05/26 02:03:33;;;;;;;14.93;13.33;;;13.80;99.90;;;;;;5051033;28;20745;-52
2023/05/26 02:06:00;;;;;;;13.80;12.57;;;13.70;99.90;;;;;;5051120;28;20784;-51
2023/05/26 02:08:27;;;;;;;14.67;13.17;;;13.60;99.90;;;;;;5051123;28;20221;-52
2023/05/26 02:10:54;;;;;;;15.87;13.17;;;13.60;99.90;;;;;;5051607;28;20663;-52
2023/05/26 02:13:21;;;;;;;15.87;14.23;;;13.50;99.90;;;;;;5050794;28;20614;-52
2023/05/26 02:15:50;;;;;;;14.07;12.77;;;13.40;99.90;;;;;;5050849;28;20304;-52
2023/05/26 02:18:17;;;;;;;12.83;11.63;;;13.40;99.90;;;;;;5049496;28;20201;-52
2023/05/26 02:20:44;;;;;;;15.77;12.70;;;13.40;99.90;;;;;;5048113;28;20260;-52
2023/05/26 02:23:11;;;;;;;12.43;11.13;;;13.40;99.90;;;;;;5051846;28;20251;-52
2023/05/26 02:25:38;;;;;;;12.90;11.60;;;13.40;99.90;;;;;;5052388;28;20233;-51
2023/05/26 02:28:05;;;;;;;13.20;11.73;;;13.50;99.90;;;;;;5082414;22;20233;-56
2023/05/26 02:30:32;;;;;;;12.33;11.23;;;13.50;99.90;;;;;;5070968;28;20229;-56
2023/05/26 02:33:01;;;;;;;12.30;11.20;;;13.50;99.90;;;;;;5072125;28;20492;-56
2023/05/26 02:35:28;;;;;;;12.40;11.20;;;13.50;99.90;;;;;;5072098;28;20209;-56
2023/05/26 02:37:55;;;;;;;12.17;10.87;;;13.50;99.90;;;;;;5071133;28;20306;-56
2023/05/26 02:40:22;;;;;;;11.77;10.57;;;13.50;99.90;;;;;;5071839;28;20219;-56
2023/05/26 02:42:49;;;;;;;11.73;10.53;;;13.60;99.90;;;;;;5070732;28;20752;-56
2023/05/26 02:45:16;;;;;;;10.73;9.70;;;13.70;99.90;;;;;;5062612;28;20558;-56
2023/05/26 02:47:43;;;;;;;11.17;10.03;;;13.70;99.90;;;;;;5069917;28;20282;-56
2023/05/26 02:50:11;;;;;;;10.97;9.97;;;13.80;99.90;;;;;;5071244;28;20270;-56
2023/05/26 02:52:38;;;;;;;10.90;9.93;;;13.90;99.90;;;;;;5072050;28;20201;-57
2023/05/26 02:55:08;;;;;;;10.70;9.73;;;13.90;99.90;;;;;;5072110;28;20200;-56
2023/05/26 02:57:35;;;;;;;9.53;8.73;;;14.00;99.90;;;;;;5071143;28;20316;-57
2023/05/26 03:00:02;;;;;;;10.47;9.50;;;14.00;99.90;;;;;;5070239;28;20203;-57
2023/05/26 03:02:29;;;;;;;10.37;9.30;;;14.00;99.90;;;;;;5071570;28;20239;-57
2023/05/26 03:04:56;;;;;;;12.00;10.27;;;14.00;99.90;;;;;;5072246;28;20201;-57
2023/05/26 03:07:24;;;;;;;10.03;9.07;;;14.00;99.90;;;;;;5072079;28;20221;-57
2023/05/26 03:09:51;;;;;;;10.13;9.23;;;14.00;99.90;;;;;;5070798;28;20262;-56
2023/05/26 03:12:18;;;;;;;9.30;8.50;;;14.00;99.90;;;;;;5070224;28;20213;-57
2023/05/26 03:14:45;;;;;;;10.53;9.37;;;14.00;99.90;;;;;;5071674;28;20197;-57
2023/05/26 03:17:12;;;;;;;10.30;9.40;;;13.90;99.90;;;;;;5071704;28;20221;-56
2023/05/26 03:19:39;;;;;;;10.00;9.30;;;13.90;99.90;;;;;;5069368;28;20254;-57
2023/05/26 03:22:06;;;;;;;12.33;11.13;;;13.90;99.90;;;;;;5071453;28;20197;-57
2023/05/26 03:24:35;;;;;;;9.77;8.97;;;14.00;99.90;;;;;;5071735;28;20254;-57
2023/05/26 03:27:02;;;;;;;10.27;9.47;;;14.10;99.90;;;;;;5068092;28;20272;-57
2023/05/26 03:29:30;;;;;;;9.83;9.07;;;14.20;99.90;;;;;;5063095;28;20698;-56
2023/05/26 03:31:57;;;;;;;9.07;8.37;;;14.20;99.90;;;;;;5071510;28;20197;-57
2023/05/26 03:34:25;;;;;;;10.13;9.23;;;14.20;99.90;;;;;;5071430;28;20247;-57
2023/05/26 03:36:53;;;;;;;10.33;9.37;;;14.20;99.90;;;;;;5071712;28;20223;-57
2023/05/26 03:39:21;;;;;;;10.60;9.60;;;14.20;99.90;;;;;;5070690;28;20193;-56
2023/05/26 03:41:50;;;;;;;10.77;9.70;;;14.10;99.90;;;;;;5070775;28;20284;-56
2023/05/26 03:44:18;;;;;;;10.60;9.63;;;14.10;99.90;;;;;;5071201;28;20274;-56
2023/05/26 03:46:46;;;;;;;9.73;8.93;;;14.10;99.90;;;;;;5069859;28;20229;-57
2023/05/26 03:49:13;;;;;;;12.97;11.00;;;14.10;99.90;;;;;;5068062;28;20641;-57
2023/05/26 03:51:41;;;;;;;11.03;9.40;;;14.10;99.90;;;;;;5071018;28;20728;-56
2023/05/26 03:54:08;;;;;;;9.30;8.47;;;14.10;99.90;;;;;;5068834;28;20197;-57
2023/05/26 03:56:35;;;;;;;9.80;8.90;;;14.10;99.90;;;;;;5069013;28;20369;-56
2023/05/26 03:59:03;;;;;;;11.20;10.10;;;14.20;99.90;;;;;;5067928;28;20200;-57
2023/05/26 04:01:30;;;;;;;11.23;10.23;;;14.20;99.90;;;;;;5069454;28;20205;-57
2023/05/26 04:03:57;;;;;;;11.17;10.13;;;14.30;99.90;;;;;;5069703;28;20205;-57
2023/05/26 04:06:25;;;;;;;10.53;9.53;;;14.30;99.90;;;;;;5070639;28;20222;-57
2023/05/26 04:08:51;;;;;;;11.90;10.80;;;14.30;99.90;;;;;;5069551;28;20205;-56
2023/05/26 04:11:19;;;;;;;12.53;11.33;;;14.30;99.90;;;;;;5069964;28;20205;-56
2023/05/26 04:13:45;;;;;;;12.80;11.60;;;14.40;99.90;;;;;;5070720;28;20202;-57
2023/05/26 04:16:14;;;;;;;12.07;10.60;;;14.40;99.90;;;;;;5072430;28;20197;-56
2023/05/26 04:18:41;;;;;;;14.10;12.80;;;14.40;99.90;;;;;;5073219;28;20658;-57
2023/05/26 04:21:08;;;;;;;13.90;12.50;;;14.50;99.90;;;;;;5074389;28;20629;-57
2023/05/26 04:23:35;;;;;;;11.60;10.57;;;14.50;99.90;;;;;;5073576;28;20307;-56
2023/05/26 04:26:03;;;;;;;14.60;13.10;;;14.60;99.90;;;;;;5066274;28;20247;-57
2023/05/26 04:28:30;;;;;;;14.00;12.60;;;14.60;99.90;;;;;;5072071;28;20599;-56
2023/05/26 04:30:57;;;;;;;15.37;13.83;;;14.70;99.90;;;;;;5074071;28;20216;-57
2023/05/26 04:33:26;;;;;;;15.10;13.23;;;14.80;99.90;;;;;;5074314;28;20259;-57
2023/05/26 04:35:54;;;;;;;17.40;13.57;;;14.90;99.90;;;;;;5075023;28;20201;-56
2023/05/26 04:38:21;;;;;;;14.33;12.93;;;15.00;99.90;;;;;;5069538;28;20638;-56
2023/05/26 04:40:49;;;;;;;14.40;12.87;;;15.00;99.90;;;;;;5072437;28;20201;-57
2023/05/26 04:43:16;;;;;;;16.90;13.93;;;15.00;99.90;;;;;;5074835;28;20280;-57
2023/05/26 04:45:43;;;;;;;16.03;13.87;;;15.00;99.90;;;;;;5074240;28;20232;-56
2023/05/26 04:48:11;;;;;;;16.60;13.10;;;15.00;99.90;;;;;;5074322;28;20224;-56
2023/05/26 04:50:39;;;;;;;15.13;12.57;;;15.10;99.90;;;;;;5074294;28;20279;-57
2023/05/26 04:53:06;;;;;;;13.67;12.37;;;15.10;99.90;;;;;;5073742;28;20200;-57
2023/05/26 04:55:35;;;;;;;13.83;12.47;;;15.10;99.90;;;;;;5073847;28;20204;-56
2023/05/26 04:58:03;;;;;;;14.17;12.60;;;15.10;99.90;;;;;;5074079;28;20299;-57
2023/05/26 05:00:31;;;;;;;14.73;13.07;;;15.20;99.90;;;;;;5073992;28;20276;-57
2023/05/26 05:02:59;;;;;;;16.33;14.43;;;15.20;99.90;;;;;;5069004;28;20197;-57
2023/05/26 05:05:26;;;;;;;15.33;13.13;;;15.10;99.90;;;;;;5072700;28;20197;-57
2023/05/26 05:07:54;;;;;;;13.77;12.37;;;15.20;99.90;;;;;;5073528;28;20213;-57
2023/05/26 05:10:21;;;;;;;13.30;11.90;;;15.30;99.90;;;;;;5064669;28;20259;-57
2023/05/26 05:12:48;;;;;;;15.03;13.47;;;15.40;99.90;;;;;;5068849;28;20205;-56
2023/05/26 05:15:15;;;;;;;16.37;14.67;;;15.50;99.90;;;;;;5068897;28;20193;-57
2023/05/26 05:17:42;;;;;;;19.40;14.47;;;15.60;99.90;;;;;;5053714;28;20283;-57
2023/05/26 05:20:10;;;;;;;13.80;12.30;;;15.70;99.90;;;;;;5072427;28;20212;-56
2023/05/26 05:22:37;;;;;;;15.07;13.43;;;15.70;99.90;;;;;;5073213;28;20201;-56
2023/05/26 05:25:06;;;;;;;14.57;13.17;;;15.80;99.90;;;;;;5073530;28;20204;-56
2023/05/26 05:27:33;;;;;;;15.47;13.80;;;15.90;99.90;;;;;;5072255;28;20233;-57
2023/05/26 05:30:00;;;;;;;14.67;13.17;;;16.10;99.90;;;;;;5073115;28;20224;-56
2023/05/26 05:32:27;;;;;;;17.30;14.37;;;16.10;99.90;;;;;;5072891;28;20197;-56
2023/05/26 05:34:55;;;;;;;14.77;13.47;;;16.10;99.90;;;;;;5073435;28;20201;-56
2023/05/26 05:37:22;;;;;;;19.27;13.77;;;16.20;99.90;;;;;;5073027;28;20236;-57
2023/05/26 05:39:49;;;;;;;16.07;14.07;;;16.30;99.90;;;;;;5073108;28;20193;-57
2023/05/26 05:42:19;;;;;;;14.77;13.40;;;16.30;99.90;;;;;;5072849;28;20201;-57
2023/05/26 05:44:46;;;;;;;15.30;13.73;;;16.30;99.90;;;;;;5072057;28;20259;-56
2023/05/26 05:47:13;;;;;;;15.03;13.47;;;16.50;99.90;;;;;;5072936;28;20275;-56
2023/05/26 05:49:40;;;;;;;17.43;13.43;;;16.60;99.90;;;;;;5072931;28;20274;-57
2023/05/26 05:52:08;;;;;;;16.90;12.97;;;16.70;99.90;;;;;;5069816;28;20193;-57
2023/05/26 05:54:35;;;;;;;14.83;12.23;;;16.80;99.90;;;;;;5072676;28;20231;-56
2023/05/26 05:57:05;;;;;;;13.27;11.97;;;16.90;99.90;;;;;;5071362;28;20264;-57
2023/05/26 05:59:34;;;;;;;13.27;11.80;;;17.00;99.90;;;;;;5072417;28;20201;-56
2023/05/26 06:02:00;;;;;;;14.03;11.80;;;17.10;99.90;;;;;;5071421;28;20246;-56
2023/05/26 06:04:27;;;;;;;23.93;12.93;;;17.20;99.90;;;;;;5070702;28;20254;-57
2023/05/26 06:06:54;;;;;;;16.97;11.63;;;17.50;99.90;;;;;;5072124;28;20221;-57
2023/05/26 06:09:22;;;;;;;15.47;13.77;;;17.90;99.90;;;;;;5072126;28;20204;-57
2023/05/26 06:11:49;;;;;;;14.93;13.53;;;18.20;99.90;;;;;;5071100;28;20666;-57
2023/05/26 06:14:16;;;;;;;14.97;12.50;;;18.50;99.90;;;;;;5072015;28;20198;-57
2023/05/26 06:16:44;;;;;;;17.13;13.27;;;18.50;99.90;;;;;;5059484;28;20276;-56
2023/05/26 06:19:11;;;;;;;13.10;11.80;;;18.70;99.90;;;;;;5068177;28;20242;-56
2023/05/26 06:21:38;;;;;;;14.73;12.23;;;19.00;99.90;;;;;;5068431;28;20700;-57
2023/05/26 06:24:05;;;;;;;16.03;12.67;;;19.30;99.90;;;;;;5070392;28;20201;-57
2023/05/26 06:26:32;;;;;;;14.50;12.40;;;19.50;99.90;;;;;;5071698;28;20263;-56
2023/05/26 06:28:59;;;;;;;14.87;12.27;;;19.20;99.90;;;;;;5070021;28;20197;-56
2023/05/26 06:31:26;;;;;;;17.03;11.83;;;18.90;99.90;;;;;;5072064;28;20208;-56
2023/05/26 06:33:55;;;;;;;13.50;12.10;;;18.50;99.90;;;;;;5064633;28;20217;-57
2023/05/26 06:36:22;;;;;;;13.43;12.20;;;18.50;99.90;;;;;;5069321;28;20201;-56
2023/05/26 06:38:48;;;;;;;14.73;13.30;;;18.60;99.90;;;;;;5069186;28;20197;-57
2023/05/26 06:41:15;;;;;;;14.37;12.80;;;19.20;99.90;;;;;;5069110;28;20243;-56
2023/05/26 06:43:42;;;;;;;17.27;12.10;;;19.60;99.90;;;;;;5067551;28;20243;-56
2023/05/26 06:46:09;;;;;;;13.57;12.17;;;19.50;99.90;;;;;;5071848;28;20277;-56
2023/05/26 06:48:36;;;;;;;13.33;12.03;;;20.10;99.90;;;;;;5071223;28;20221;-57
2023/05/26 06:51:07;;;;;;;15.83;11.87;;;20.70;99.90;;;;;;5071520;28;20224;-57
2023/05/26 06:53:34;;;;;;;13.13;11.60;;;21.00;99.90;;;;;;5070559;28;20266;-57
2023/05/26 06:56:01;;;;;;;12.93;11.43;;;21.10;99.90;;;;;;5069983;28;20207;-57
2023/05/26 06:58:28;;;;;;;24.43;12.23;;;21.90;99.90;;;;;;5069190;28;20643;-57
2023/05/26 07:01:00;;;;;;;12.77;11.47;;;22.00;99.90;;;;;;5069058;28;20194;-57
2023/05/26 07:03:27;;;;;;;13.17;11.93;;;22.40;99.90;;;;;;5071222;28;20208;-57
2023/05/26 07:05:54;;;;;;;12.37;11.07;;;22.90;99.90;;;;;;5071394;28;20732;-57
2023/05/26 07:08:23;;;;;;;13.20;11.67;;;23.20;99.90;;;;;;5071507;28;20221;-57
2023/05/26 07:10:50;;;;;;;15.47;11.03;;;24.40;99.90;;;;;;5070810;28;20217;-57
2023/05/26 07:13:17;;;;;;;15.60;11.80;;;25.10;99.90;;;;;;5071127;28;20678;-57
2023/05/26 07:15:44;;;;;;;12.60;11.30;;;25.10;99.90;;;;;;5070987;28;20318;-56
2023/05/26 07:18:11;;;;;;;11.43;10.30;;;25.10;99.90;;;;;;5066992;28;20292;-57
2023/05/26 07:20:39;;;;;;;18.23;11.03;;;25.90;99.90;;;;;;5070266;28;20247;-57
2023/05/26 07:23:06;;;;;;;13.40;12.03;;;26.00;99.90;;;;;;5068472;28;20276;-57
2023/05/26 07:25:34;;;;;;;12.83;11.73;;;26.30;99.90;;;;;;5064894;28;20201;-58
2023/05/26 07:28:02;;;;;;;12.67;11.23;;;26.00;99.90;;;;;;5061153;28;20290;-57
2023/05/26 07:30:29;;;;;;;13.60;10.63;;;25.90;99.90;;;;;;5065709;28;20225;-60
2023/05/26 07:32:56;;;;;;;13.57;12.17;;;26.70;99.90;;;;;;5068539;28;20209;-59
2023/05/26 07:35:23;;;;;;;13.40;12.00;;;27.20;99.90;;;;;;5067447;28;20651;-66
2023/05/26 07:37:50;;;;;;;12.27;11.10;;;27.00;99.90;;;;;;5067841;28;20717;-64
2023/05/26 07:40:17;;;;;;;13.37;12.03;;;27.50;99.90;;;;;;5068549;28;20201;-63
2023/05/26 07:42:46;;;;;;;13.50;12.17;;;26.60;99.90;;;;;;5070449;28;20205;-63
2023/05/26 07:45:13;;;;;;;12.13;11.03;;;26.70;99.90;;;;;;5068688;28;20201;-64
2023/05/26 07:47:40;;;;;;;12.83;11.63;;;27.40;99.90;;;;;;5069186;28;20786;-63
2023/05/26 07:50:08;;;;;;;13.03;11.40;;;27.90;99.90;;;;;;5072128;28;20291;-63
2023/05/26 07:52:36;;;;;;;13.63;12.33;;;27.60;99.90;;;;;;5073756;28;20257;-62
2023/05/26 07:55:02;;;;;;;12.60;11.60;;;26.70;99.90;;;;;;5072798;28;20272;-57
2023/05/26 07:57:29;;;;;;;12.10;10.90;;;27.30;99.90;;;;;;5071529;28;20220;-57
2023/05/26 07:59:58;;;;;;;12.73;11.53;;;27.30;99.90;;;;;;5068932;28;20197;-57
2023/05/26 08:02:25;;;;;;;14.70;11.63;;;27.20;99.90;;;;;;5073534;28;20262;-57
2023/05/26 08:04:52;;;;;;;12.73;11.63;;;26.80;99.90;;;;;;5074656;28;20696;-56
2023/05/26 08:07:19;;;;;;;12.60;11.57;;;26.60;99.90;;;;;;5074718;28;20714;-57
2023/05/26 08:09:46;;;;;;;14.10;12.80;;;26.50;99.90;;;;;;5073071;28;20468;-57
2023/05/26 08:12:13;;;;;;;14.23;12.20;;;26.30;99.90;;;;;;5074669;28;20286;-67
2023/05/26 08:14:40;;;;;;;12.80;11.60;;;26.70;99.90;;;;;;5072880;28;20519;-60
2023/05/26 08:17:11;;;;;;;13.10;11.90;;;26.60;99.90;;;;;;5064512;28;20293;-60
2023/05/26 08:19:38;;;;;;;15.37;13.17;;;26.80;99.90;;;;;;5068728;28;20275;-60
2023/05/26 08:22:08;;;;;;;13.47;12.03;;;27.20;99.90;;;;;;5073980;28;20197;-60
2023/05/26 08:24:35;;;;;;;14.73;12.80;;;27.20;99.90;;;;;;5074762;28;20205;-59
2023/05/26 08:27:05;;;;;;;13.47;12.07;;;26.90;99.90;;;;;;5096361;22;20594;-56
2023/05/26 08:29:32;;;;;;;13.87;12.47;;;27.50;99.90;;;;;;5054946;28;20675;-53
2023/05/26 08:31:59;;;;;;;10.85;9.85;;;27.70;99.90;;;;;;5054978;28;20229;-53
2023/05/26 08:34:27;;;;;;;12.85;11.75;;;28.20;99.90;;;;;;5054823;28;20205;-53
2023/05/26 08:36:54;;;;;;;13.15;11.27;;;28.80;99.90;;;;;;5044762;28;20225;-53
2023/05/26 08:39:21;;;;;;;12.50;11.20;;;29.10;99.90;;;;;;5054787;28;20235;-53
2023/05/26 08:41:52;;;;;;;13.77;12.40;;;28.80;99.90;;;;;;5045056;28;20471;-53
2023/05/26 08:44:19;;;;;;;14.05;12.57;;;28.50;99.90;;;;;;5054123;28;20201;-53
2023/05/26 08:46:46;;;;;;;13.95;12.40;;;27.70;99.90;;;;;;5054936;28;20255;-53
2023/05/26 08:49:17;;;;;;;18.10;13.35;;;27.50;99.90;;;;;;5054750;28;20206;-53
2023/05/26 08:51:51;;;;;;;12.68;11.02;;;27.60;99.90;;;;;;5052680;28;20225;-53
2023/05/26 08:54:18;;;;;;;15.07;13.53;;;28.30;99.90;;;;;;5054257;28;20194;-53
2023/05/26 08:56:48;;;;;;;13.97;12.57;;;27.70;99.90;;;;;;5054691;28;20206;-53
2023/05/26 08:59:18;;;;;;;14.37;13.23;;;27.50;99.90;;;;;;5054448;28;20683;-53
2023/05/26 09:01:45;;;;;;;13.63;12.20;;;26.60;99.90;;;;;;5053672;28;20671;-53
2023/05/26 09:04:11;;;;;;;15.27;13.80;;;26.60;99.90;;;;;;5053502;28;20201;-53
2023/05/26 09:06:43;;;;;;;15.40;13.87;;;26.60;99.90;;;;;;5054424;28;20197;-53
2023/05/26 09:09:13;;;;;;;13.27;12.07;;;26.40;99.90;;;;;;5054279;28;20314;-53
2023/05/26 09:11:42;;;;;;;15.27;12.47;;;26.60;99.90;;;;;;5054369;28;20276;-53
2023/05/26 09:14:12;;;;;;;13.93;12.53;;;27.50;99.90;;;;;;5054115;28;20237;-53
2023/05/26 09:16:39;;;;;;;13.73;12.53;;;28.00;99.90;;;;;;5053109;28;20277;-53
2023/05/26 09:19:07;;;;;;;15.52;14.18;;;28.40;99.90;;;;;;5053803;28;20217;-53
2023/05/26 09:21:35;;;;;;;13.45;12.23;;;28.70;99.90;;;;;;5053932;28;20244;-53
2023/05/26 09:24:02;;;;;;;14.33;13.13;;;29.20;99.90;;;;;;5053944;28;20202;-53
2023/05/26 09:26:32;;;;;;;13.67;12.43;;;27.20;99.90;;;;;;5054116;28;20202;-53
2023/05/26 09:28:59;;;;;;;16.97;14.40;;;27.70;99.90;;;;;;5053187;28;20288;-53
2023/05/26 09:31:37;;;;;;;16.27;14.67;;;27.50;99.90;;;;;;5051907;28;20765;-53
2023/05/26 09:34:04;;;;;;;13.50;12.30;;;27.10;99.90;;;;;;5053684;28;20289;-57
2023/05/26 09:36:33;;;;;;;12.93;11.80;;;27.70;99.90;;;;;;5054030;28;20264;-53
2023/05/26 09:39:01;;;;;;;15.37;12.83;;;28.30;99.90;;;;;;5054144;28;20226;-54
2023/05/26 09:41:37;;;;;;;15.20;13.55;;;28.90;99.90;;;;;;5052644;28;20197;-54
2023/05/26 09:44:08;;;;;;;14.40;13.23;;;28.90;99.90;;;;;;5052911;28;20194;-53
2023/05/26 09:46:36;;;;;;;15.00;13.10;;;28.30;99.90;;;;;;5053540;28;20300;-53
2023/05/26 09:49:08;;;;;;;17.40;13.70;;;28.20;99.90;;;;;;5051411;28;20226;-53
2023/05/26 09:51:35;;;;;;;18.85;16.70;;;27.60;99.90;;;;;;5051302;28;20222;-53
2023/05/26 09:54:02;;;;;;;13.73;12.63;;;27.80;99.90;;;;;;5052717;28;20198;-53
2023/05/26 09:56:34;;;;;;;14.60;13.25;;;28.30;99.90;;;;;;5053323;28;20272;-53
2023/05/26 09:59:04;;;;;;;14.20;12.98;;;28.70;99.90;;;;;;5053548;28;20450;-53
2023/05/26 10:01:32;;;;;;;15.23;13.80;;;29.10;99.90;;;;;;5052575;28;20230;-53
2023/05/26 10:04:00;;;;;;;13.57;12.52;;;28.70;99.90;;;;;;5052880;28;20197;-53
2023/05/26 10:06:27;;;;;;;15.10;13.85;;;28.50;99.90;;;;;;5042941;28;20264;-53
2023/05/26 10:08:57;;;;;;;14.20;12.90;;;28.40;99.90;;;;;;5052948;28;20225;-53
2023/05/26 10:11:26;;;;;;;15.60;14.18;;;28.70;99.90;;;;;;5051165;28;20222;-53
2023/05/26 10:13:54;;;;;;;14.60;13.30;;;29.10;99.90;;;;;;5051939;28;20296;-54
2023/05/26 10:16:23;;;;;;;15.57;13.95;;;28.80;99.90;;;;;;5053138;28;20289;-53
2023/05/26 10:18:50;;;;;;;14.55;13.35;;;28.50;99.90;;;;;;5052908;28;20280;-53
2023/05/26 10:21:21;;;;;;;17.42;15.80;;;29.00;99.90;;;;;;5049913;28;20244;-53
2023/05/26 10:23:55;;;;;;;15.95;14.65;;;29.40;99.90;;;;;;5050730;28;20279;-53
2023/05/26 10:26:27;;;;;;;17.23;15.68;;;29.50;99.90;;;;;;5052847;28;20197;-53
2023/05/26 10:29:03;;;;;;;15.50;14.00;;;29.30;99.90;;;;;;5052656;28;20229;-55
2023/05/26 10:31:32;;;;;;;15.50;14.10;;;29.50;99.90;;;;;;5044025;28;20229;-53
2023/05/26 10:33:59;;;;;;;15.68;14.20;;;29.90;99.90;;;;;;5052453;28;20725;-53
2023/05/26 10:36:27;;;;;;;19.00;14.80;;;29.60;99.90;;;;;;5051943;28;20202;-53
2023/05/26 10:38:55;;;;;;;16.17;14.75;;;29.30;99.90;;;;;;5052350;28;20256;-53
2023/05/26 10:41:32;;;;;;;15.30;13.77;;;28.60;99.90;;;;;;5052345;28;20252;-53
2023/05/26 10:44:00;;;;;;;15.18;13.77;;;28.00;99.90;;;;;;5052232;28;20255;-53
2023/05/26 10:46:39;;;;;;;16.25;13.88;;;28.10;99.90;;;;;;5052567;28;20741;-53
2023/05/26 10:49:20;;;;;;;14.68;13.38;;;27.80;99.90;;;;;;5048522;28;20221;-55
2023/05/26 10:51:52;;;;;;;16.48;14.80;;;28.00;99.90;;;;;;5049398;28;20675;-54
2023/05/26 10:54:22;;;;;;;14.93;13.38;;;27.60;99.90;;;;;;5051751;28;20198;-55
2023/05/26 10:56:51;;;;;;;18.00;16.17;;;27.20;99.90;;;;;;5047805;28;20665;-53
2023/05/26 10:59:24;;;;;;;16.60;14.90;;;27.10;99.90;;;;;;5049147;28;20598;-53
2023/05/26 11:01:53;;;;;;;14.80;13.40;;;26.60;99.90;;;;;;5051837;28;20556;-53
2023/05/26 11:04:21;;;;;;;16.57;14.93;;;26.30;99.90;;;;;;5049404;28;20198;-53
2023/05/26 11:06:50;;;;;;;14.37;13.10;;;26.00;99.90;;;;;;5050865;28;20206;-53
2023/05/26 11:09:17;;;;;;;15.20;13.80;;;26.00;99.90;;;;;;5050801;28;20254;-53
2023/05/26 11:11:51;;;;;;;20.10;14.53;;;25.90;99.90;;;;;;5051610;28;20272;-53
2023/05/26 11:14:24;;;;;;;18.23;13.80;;;25.80;99.90;;;;;;5051807;28;20251;-53
2023/05/26 11:16:56;;;;;;;13.17;11.87;;;25.80;99.90;;;;;;5051805;28;20201;-53
2023/05/26 11:19:30;;;;;;;13.37;12.27;;;26.10;99.90;;;;;;5048897;28;20259;-53
2023/05/26 11:21:58;;;;;;;11.37;10.37;;;26.30;99.90;;;;;;5051647;28;20668;-53
2023/05/26 11:24:25;;;;;;;14.83;12.43;;;26.40;99.90;;;;;;5049936;28;20202;-53
2023/05/26 11:26:52;;;;;;;14.23;10.23;;;26.30;99.90;;;;;;5050198;28;20305;-53
2023/05/26 11:29:22;;;;;;;15.17;11.37;;;26.20;99.90;;;;;;5050509;28;20324;-53
2023/05/26 11:31:52;;;;;;;13.57;10.83;;;26.20;99.90;;;;;;5051535;28;20741;-52
2023/05/26 11:34:19;;;;;;;11.17;10.07;;;26.20;99.90;;;;;;5051585;28;20202;-53
2023/05/26 11:36:48;;;;;;;12.73;11.47;;;26.00;99.90;;;;;;5051287;28;20209;-53
2023/05/26 11:39:15;;;;;;;11.10;9.97;;;26.00;99.90;;;;;;5049934;28;20197;-53
2023/05/26 11:41:43;;;;;;;12.70;9.83;;;25.80;99.90;;;;;;5051527;28;20659;-53
2023/05/26 11:44:12;;;;;;;10.13;9.20;;;26.00;99.90;;;;;;5051557;28;20201;-53
2023/05/26 11:46:40;;;;;;;12.37;11.07;;;26.00;99.90;;;;;;5051719;28;20210;-53
2023/05/26 11:49:13;;;;;;;11.07;10.10;;;25.80;99.90;;;;;;5049467;28;20665;-53
2023/05/26 11:51:46;;;;;;;10.27;9.03;;;25.30;99.90;;;;;;5051523;28;20300;-53
2023/05/26 11:54:13;;;;;;;10.23;8.93;;;25.20;99.90;;;;;;5051527;28;20197;-53
2023/05/26 11:56:40;;;;;;;9.33;8.63;;;25.40;99.90;;;;;;5049471;28;20259;-53
2023/05/26 11:59:07;;;;;;;9.77;8.87;;;25.50;99.90;;;;;;5044108;28;20968;-53
2023/05/26 12:01:35;;;;;;;9.20;8.40;;;25.30;99.90;;;;;;5051584;28;20213;-53
2023/05/26 12:04:05;;;;;;;9.60;8.87;;;25.50;99.90;;;;;;5051379;28;20198;-52
2023/05/26 12:06:39;;;;;;;9.23;8.47;;;25.30;99.90;;;;;;5051075;28;20251;-53
2023/05/26 12:09:11;;;;;;;14.23;12.43;;;25.40;99.90;;;;;;5051350;28;20218;-53
2023/05/26 12:11:42;;;;;;;9.57;8.67;;;25.20;99.90;;;;;;5051433;28;20222;-52
2023/05/26 12:14:12;;;;;;;9.27;8.37;;;25.00;99.90;;;;;;5041687;28;20197;-52
2023/05/26 12:16:41;;;;;;;10.90;9.13;;;25.00;99.90;;;;;;5051213;28;20252;-52
2023/05/26 12:19:10;;;;;;;9.67;8.87;;;25.00;99.90;;;;;;5051101;28;20730;-52
2023/05/26 12:21:42;;;;;;;9.97;9.13;;;25.00;99.90;;;;;;5049643;28;20216;-52
2023/05/26 12:24:09;;;;;;;8.47;7.67;;;25.10;99.90;;;;;;5041730;28;20594;-52
2023/05/26 12:26:36;;;;;;;9.03;8.27;;;25.10;99.90;;;;;;5051142;28;20255;-52
2023/05/26 12:29:11;;;;;;;8.87;7.97;;;24.90;99.90;;;;;;5046970;28;20559;-52
2023/05/26 12:31:44;;;;;;;7.50;6.97;;;24.80;99.90;;;;;;5046834;28;20201;-52
2023/05/26 12:34:13;;;;;;;10.10;9.17;;;25.10;99.90;;;;;;5051204;28;20259;-52